sensor_id;sensor_type;location;lat;lon;timestamp;pressure;altitude;pressure_sealevel;temperature
68440;BMP180;55421;51.600;5.718;2023-12-22T00:01:07;162345.20;;;4.90
68440;BMP180;55421;51.600;5.718;2023-12-22T00:03:41;162346.41;;;4.90
68440;BMP180;55421;51.600;5.718;2023-12-22T00:06:08;162344.41;;;4.90
68440;BMP180;55421;51.600;5.718;2023-12-22T00:08:34;162348.80;;;4.90
68440;BMP180;55421;51.600;5.718;2023-12-22T00:11:01;162347.59;;;4.90
68440;BMP180;55421;51.600;5.718;2023-12-22T00:13:27;162345.20;;;4.90
68440;BMP180;55421;51.600;5.718;2023-12-22T00:15:54;162348.80;;;4.90
68440;BMP180;55421;51.600;5.718;2023-12-22T00:18:20;162352.41;;;4.90
68440;BMP180;55421;51.600;5.718;2023-12-22T00:20:47;162358.41;;;4.90
68440;BMP180;55421;51.600;5.718;2023-12-22T00:23:13;162356.00;;;4.90
68440;BMP180;55421;51.600;5.718;2023-12-22T00:25:40;162354.80;;;4.90
68440;BMP180;55421;51.600;5.718;2023-12-22T00:28:06;162356.00;;;4.90
68440;BMP180;55421;51.600;5.718;2023-12-22T00:30:32;162352.41;;;4.90
68440;BMP180;55421;51.600;5.718;2023-12-22T00:32:59;162347.59;;;4.90
68440;BMP180;55421;51.600;5.718;2023-12-22T00:35:26;162333.20;;;4.90
68440;BMP180;55421;51.600;5.718;2023-12-22T00:37:52;162330.00;;;4.84
68440;BMP180;55421;51.600;5.718;2023-12-22T00:40:19;162328.00;;;4.86
68440;BMP180;55421;51.600;5.718;2023-12-22T00:42:46;162337.59;;;4.90
68440;BMP180;55421;51.600;5.718;2023-12-22T00:45:12;162345.20;;;4.90
68440;BMP180;55421;51.600;5.718;2023-12-22T00:47:39;162351.20;;;4.90
68440;BMP180;55421;51.600;5.718;2023-12-22T00:50:06;162354.80;;;4.90
68440;BMP180;55421;51.600;5.718;2023-12-22T00:52:34;162353.59;;;4.90
68440;BMP180;55421;51.600;5.718;2023-12-22T00:55:00;162356.00;;;4.90
68440;BMP180;55421;51.600;5.718;2023-12-22T00:57:27;162379.20;;;5.00
68440;BMP180;55421;51.600;5.718;2023-12-22T00:59:54;162403.59;;;5.00
68440;BMP180;55421;51.600;5.718;2023-12-22T01:02:21;162412.00;;;5.00
68440;BMP180;55421;51.600;5.718;2023-12-22T01:04:47;162415.59;;;5.02
68440;BMP180;55421;51.600;5.718;2023-12-22T01:07:14;162408.00;;;5.00
68440;BMP180;55421;51.600;5.718;2023-12-22T01:09:42;162391.20;;;5.00
68440;BMP180;55421;51.600;5.718;2023-12-22T01:12:08;162379.20;;;5.00
68440;BMP180;55421;51.600;5.718;2023-12-22T01:14:36;162377.20;;;5.00
68440;BMP180;55421;51.600;5.718;2023-12-22T01:17:03;162361.59;;;4.90
68440;BMP180;55421;51.600;5.718;2023-12-22T01:19:29;162350.00;;;4.90
68440;BMP180;55421;51.600;5.718;2023-12-22T01:21:56;162333.59;;;4.90
68440;BMP180;55421;51.600;5.718;2023-12-22T01:24:22;162330.00;;;4.84
68440;BMP180;55421;51.600;5.718;2023-12-22T01:26:49;162316.41;;;4.80
68440;BMP180;55421;51.600;5.718;2023-12-22T01:29:15;162308.20;;;4.80
68440;BMP180;55421;51.600;5.718;2023-12-22T01:31:42;162305.59;;;4.80
68440;BMP180;55421;51.600;5.718;2023-12-22T01:34:08;162308.20;;;4.80
68440;BMP180;55421;51.600;5.718;2023-12-22T01:36:35;162321.59;;;4.80
68440;BMP180;55421;51.600;5.718;2023-12-22T01:39:01;162334.80;;;4.88
68440;BMP180;55421;51.600;5.718;2023-12-22T01:41:27;162362.80;;;4.90
68440;BMP180;55421;51.600;5.718;2023-12-22T01:43:54;162396.41;;;5.00
68440;BMP180;55421;51.600;5.718;2023-12-22T01:46:21;162431.41;;;5.10
68440;BMP180;55421;51.600;5.718;2023-12-22T01:48:48;162476.59;;;5.20
68440;BMP180;55421;51.600;5.718;2023-12-22T01:51:15;162503.41;;;5.24
68440;BMP180;55421;51.600;5.718;2023-12-22T01:53:41;162515.41;;;5.30
68440;BMP180;55421;51.600;5.718;2023-12-22T01:56:08;162521.00;;;5.30
68440;BMP180;55421;51.600;5.718;2023-12-22T01:58:37;162518.59;;;5.30
68440;BMP180;55421;51.600;5.718;2023-12-22T02:01:04;162530.20;;;5.30
68440;BMP180;55421;51.600;5.718;2023-12-22T02:03:31;162533.00;;;5.30
68440;BMP180;55421;51.600;5.718;2023-12-22T02:05:58;162541.00;;;5.30
68440;BMP180;55421;51.600;5.718;2023-12-22T02:08:26;162551.41;;;5.38
68440;BMP180;55421;51.600;5.718;2023-12-22T02:10:54;162555.00;;;5.40
68440;BMP180;55421;51.600;5.718;2023-12-22T02:13:20;162556.20;;;5.40
68440;BMP180;55421;51.600;5.718;2023-12-22T02:16:05;162550.20;;;5.40
68440;BMP180;55421;51.600;5.718;2023-12-22T02:18:38;162551.80;;;5.38
68440;BMP180;55421;51.600;5.718;2023-12-22T02:21:05;162549.00;;;5.36
68440;BMP180;55421;51.600;5.718;2023-12-22T02:23:31;162556.20;;;5.40
68440;BMP180;55421;51.600;5.718;2023-12-22T02:26:12;162556.20;;;5.40
68440;BMP180;55421;51.600;5.718;2023-12-22T02:28:45;162576.41;;;5.40
68440;BMP180;55421;51.600;5.718;2023-12-22T02:31:20;162576.41;;;5.40
68440;BMP180;55421;51.600;5.718;2023-12-22T02:33:52;162565.20;;;5.40
68440;BMP180;55421;51.600;5.718;2023-12-22T02:36:20;162553.80;;;5.40
68440;BMP180;55421;51.600;5.718;2023-12-22T02:38:48;162565.20;;;5.40
68440;BMP180;55421;51.600;5.718;2023-12-22T02:41:16;162581.20;;;5.40
68440;BMP180;55421;51.600;5.718;2023-12-22T02:43:43;162580.00;;;5.40
68440;BMP180;55421;51.600;5.718;2023-12-22T02:46:14;162572.80;;;5.40
68440;BMP180;55421;51.600;5.718;2023-12-22T02:48:41;162556.20;;;5.40
68440;BMP180;55421;51.600;5.718;2023-12-22T02:51:07;162556.20;;;5.40
68440;BMP180;55421;51.600;5.718;2023-12-22T02:53:34;162552.59;;;5.40
68440;BMP180;55421;51.600;5.718;2023-12-22T02:56:00;162576.41;;;5.40
68440;BMP180;55421;51.600;5.718;2023-12-22T02:58:27;162583.59;;;5.42
68440;BMP180;55421;51.600;5.718;2023-12-22T03:00:54;162592.00;;;5.48
68440;BMP180;55421;51.600;5.718;2023-12-22T03:03:20;162589.20;;;5.50
68440;BMP180;55421;51.600;5.718;2023-12-22T03:05:47;162605.59;;;5.50
68440;BMP180;55421;51.600;5.718;2023-12-22T03:08:13;162628.80;;;5.50
68440;BMP180;55421;51.600;5.718;2023-12-22T03:10:39;162651.59;;;5.60
68440;BMP180;55421;51.600;5.718;2023-12-22T03:13:06;162671.59;;;5.68
68440;BMP180;55421;51.600;5.718;2023-12-22T03:15:32;162685.80;;;5.70
68440;BMP180;55421;51.600;5.718;2023-12-22T03:17:59;162689.00;;;5.70
68440;BMP180;55421;51.600;5.718;2023-12-22T03:20:25;162692.20;;;5.70
68440;BMP180;55421;51.600;5.718;2023-12-22T03:22:51;162699.00;;;5.70
68440;BMP180;55421;51.600;5.718;2023-12-22T03:25:18;162707.00;;;5.70
68440;BMP180;55421;51.600;5.718;2023-12-22T03:27:45;162723.80;;;5.80
68440;BMP180;55421;51.600;5.718;2023-12-22T03:30:12;162739.80;;;5.80
68440;BMP180;55421;51.600;5.718;2023-12-22T03:32:39;162759.80;;;5.88
68440;BMP180;55421;51.600;5.718;2023-12-22T03:35:06;162776.20;;;5.90
68440;BMP180;55421;51.600;5.718;2023-12-22T03:37:32;162796.20;;;5.90
68440;BMP180;55421;51.600;5.718;2023-12-22T03:39:59;162814.00;;;6.00
68440;BMP180;55421;51.600;5.718;2023-12-22T03:42:25;162820.00;;;6.00
68440;BMP180;55421;51.600;5.718;2023-12-22T03:44:52;162841.59;;;6.00
68440;BMP180;55421;51.600;5.718;2023-12-22T03:47:18;162850.00;;;6.02
68440;BMP180;55421;51.600;5.718;2023-12-22T03:49:45;162845.20;;;6.00
68440;BMP180;55421;51.600;5.718;2023-12-22T03:52:11;162836.00;;;6.00
68440;BMP180;55421;51.600;5.718;2023-12-22T03:54:38;162828.00;;;6.00
68440;BMP180;55421;51.600;5.718;2023-12-22T03:57:04;162816.00;;;6.00
68440;BMP180;55421;51.600;5.718;2023-12-22T03:59:31;162805.80;;;5.90
68440;BMP180;55421;51.600;5.718;2023-12-22T04:01:57;162813.00;;;6.00
68440;BMP180;55421;51.600;5.718;2023-12-22T04:04:27;162818.00;;;6.00
68440;BMP180;55421;51.600;5.718;2023-12-22T04:06:54;162830.41;;;6.00
68440;BMP180;55421;51.600;5.718;2023-12-22T04:09:21;162837.59;;;6.00
68440;BMP180;55421;51.600;5.718;2023-12-22T04:11:48;162853.59;;;6.10
68440;BMP180;55421;51.600;5.718;2023-12-22T04:14:14;162874.41;;;6.10
68440;BMP180;55421;51.600;5.718;2023-12-22T04:16:41;162888.00;;;6.14
68440;BMP180;55421;51.600;5.718;2023-12-22T04:19:08;162902.00;;;6.20
68440;BMP180;55421;51.600;5.718;2023-12-22T04:21:35;162909.80;;;6.20
68440;BMP180;55421;51.600;5.718;2023-12-22T04:24:01;162942.20;;;6.30
68440;BMP180;55421;51.600;5.718;2023-12-22T04:26:28;162953.80;;;6.30
68440;BMP180;55421;51.600;5.718;2023-12-22T04:28:54;162957.41;;;6.30
68440;BMP180;55421;51.600;5.718;2023-12-22T04:31:20;162957.00;;;6.30
68440;BMP180;55421;51.600;5.718;2023-12-22T04:33:47;162975.80;;;6.32
68440;BMP180;55421;51.600;5.718;2023-12-22T04:36:14;163007.41;;;6.40
68440;BMP180;55421;51.600;5.718;2023-12-22T04:38:40;163011.00;;;6.40
68440;BMP180;55421;51.600;5.718;2023-12-22T04:41:07;163029.00;;;6.50
68440;BMP180;55421;51.600;5.718;2023-12-22T04:43:33;163031.80;;;6.50
68440;BMP180;55421;51.600;5.718;2023-12-22T04:46:00;163042.59;;;6.50
68440;BMP180;55421;51.600;5.718;2023-12-22T04:48:29;163055.20;;;6.52
68440;BMP180;55421;51.600;5.718;2023-12-22T04:50:55;163042.41;;;6.50
68440;BMP180;55421;51.600;5.718;2023-12-22T04:53:21;163039.00;;;6.50
68440;BMP180;55421;51.600;5.718;2023-12-22T04:55:49;163035.80;;;6.50
68440;BMP180;55421;51.600;5.718;2023-12-22T04:58:16;163032.59;;;6.50
68440;BMP180;55421;51.600;5.718;2023-12-22T05:00:42;163029.80;;;6.50
68440;BMP180;55421;51.600;5.718;2023-12-22T05:03:09;162979.59;;;6.50
68440;BMP180;55421;51.600;5.718;2023-12-22T05:05:36;162995.00;;;6.50
68440;BMP180;55421;51.600;5.718;2023-12-22T05:08:03;163018.20;;;6.42
68440;BMP180;55421;51.600;5.718;2023-12-22T05:10:31;162491.80;;;6.50
68440;BMP180;55421;51.600;5.718;2023-12-22T05:12:58;162866.41;;;6.50
68440;BMP180;55421;51.600;5.718;2023-12-22T05:15:25;162676.20;;;6.48
68440;BMP180;55421;51.600;5.718;2023-12-22T05:17:52;162584.41;;;6.46
68440;BMP180;55421;51.600;5.718;2023-12-22T05:20:19;162593.41;;;6.44
68440;BMP180;55421;51.600;5.718;2023-12-22T05:22:45;163018.20;;;6.48
68440;BMP180;55421;51.600;5.718;2023-12-22T05:25:13;163015.80;;;6.44
68440;BMP180;55421;51.600;5.718;2023-12-22T05:27:40;163018.20;;;6.42
68440;BMP180;55421;51.600;5.718;2023-12-22T05:30:10;163025.41;;;6.50
68440;BMP180;55421;51.600;5.718;2023-12-22T05:32:37;163032.59;;;6.50
68440;BMP180;55421;51.600;5.718;2023-12-22T05:35:04;163043.20;;;6.50
68440;BMP180;55421;51.600;5.718;2023-12-22T05:37:31;163062.41;;;6.56
68440;BMP180;55421;51.600;5.718;2023-12-22T05:39:57;163072.00;;;6.60
68440;BMP180;55421;51.600;5.718;2023-12-22T05:42:24;163094.41;;;6.60
68440;BMP180;55421;51.600;5.718;2023-12-22T05:44:50;163107.20;;;6.60
68440;BMP180;55421;51.600;5.718;2023-12-22T05:47:17;163100.00;;;6.60
68440;BMP180;55421;51.600;5.718;2023-12-22T05:49:43;163107.20;;;6.60
68440;BMP180;55421;51.600;5.718;2023-12-22T05:52:12;163117.59;;;6.70
68440;BMP180;55421;51.600;5.718;2023-12-22T05:54:38;163128.41;;;6.70
68440;BMP180;55421;51.600;5.718;2023-12-22T05:57:05;163107.20;;;6.60
68440;BMP180;55421;51.600;5.718;2023-12-22T05:59:33;163086.41;;;6.60
68440;BMP180;55421;51.600;5.718;2023-12-22T06:02:01;163060.41;;;6.54
68440;BMP180;55421;51.600;5.718;2023-12-22T06:04:29;163040.80;;;6.50
68440;BMP180;55421;51.600;5.718;2023-12-22T06:06:55;163021.80;;;6.46
68440;BMP180;55421;51.600;5.718;2023-12-22T06:09:21;163002.59;;;6.40
68440;BMP180;55421;51.600;5.718;2023-12-22T06:11:48;162999.41;;;6.40
68440;BMP180;55421;51.600;5.718;2023-12-22T06:14:15;163007.41;;;6.40
68440;BMP180;55421;51.600;5.718;2023-12-22T06:16:41;163015.80;;;6.40
68440;BMP180;55421;51.600;5.718;2023-12-22T06:19:08;163013.41;;;6.40
68440;BMP180;55421;51.600;5.718;2023-12-22T06:21:39;163013.41;;;6.42
68440;BMP180;55421;51.600;5.718;2023-12-22T06:24:07;163019.41;;;6.48
68440;BMP180;55421;51.600;5.718;2023-12-22T06:26:34;163036.59;;;6.50
68440;BMP180;55421;51.600;5.718;2023-12-22T06:29:01;163048.00;;;6.50
68440;BMP180;55421;51.600;5.718;2023-12-22T06:31:27;163071.59;;;6.60
68440;BMP180;55421;51.600;5.718;2023-12-22T06:33:53;163087.20;;;6.60
68440;BMP180;55421;51.600;5.718;2023-12-22T06:36:22;163106.41;;;6.68
68440;BMP180;55421;51.600;5.718;2023-12-22T06:38:52;163114.00;;;6.70
68440;BMP180;55421;51.600;5.718;2023-12-22T06:41:22;163112.80;;;6.68
68440;BMP180;55421;51.600;5.718;2023-12-22T06:43:49;163102.00;;;6.60
68440;BMP180;55421;51.600;5.718;2023-12-22T06:46:19;163100.00;;;6.60
68440;BMP180;55421;51.600;5.718;2023-12-22T06:48:46;163095.59;;;6.60
68440;BMP180;55421;51.600;5.718;2023-12-22T06:51:19;163118.80;;;6.70
68440;BMP180;55421;51.600;5.718;2023-12-22T06:53:47;163124.00;;;6.70
68440;BMP180;55421;51.600;5.718;2023-12-22T06:56:19;163150.00;;;6.76
68440;BMP180;55421;51.600;5.718;2023-12-22T06:58:48;163155.41;;;6.78
68440;BMP180;55421;51.600;5.718;2023-12-22T07:01:29;163155.41;;;6.80
68440;BMP180;55421;51.600;5.718;2023-12-22T07:03:55;163146.00;;;6.70
68440;BMP180;55421;51.600;5.718;2023-12-22T07:06:24;163147.00;;;6.70
68440;BMP180;55421;51.600;5.718;2023-12-22T07:11:43;163136.41;;;6.70
68440;BMP180;55421;51.600;5.718;2023-12-22T07:14:10;163151.00;;;6.74
68440;BMP180;55421;51.600;5.718;2023-12-22T07:16:37;163157.80;;;6.80
68440;BMP180;55421;51.600;5.718;2023-12-22T07:19:06;163167.41;;;6.80
68440;BMP180;55421;51.600;5.718;2023-12-22T07:21:33;163160.20;;;6.80
68440;BMP180;55421;51.600;5.718;2023-12-22T07:24:00;163168.20;;;6.80
68440;BMP180;55421;51.600;5.718;2023-12-22T07:26:29;163170.20;;;6.80
68440;BMP180;55421;51.600;5.718;2023-12-22T07:28:56;163185.00;;;6.80
68440;BMP180;55421;51.600;5.718;2023-12-22T07:31:22;163200.59;;;6.90
68440;BMP180;55421;51.600;5.718;2023-12-22T07:33:49;163216.20;;;6.90
68440;BMP180;55421;51.600;5.718;2023-12-22T07:36:16;163229.80;;;6.92
68440;BMP180;55421;51.600;5.718;2023-12-22T07:38:44;163241.80;;;7.00
68440;BMP180;55421;51.600;5.718;2023-12-22T07:41:11;163250.20;;;7.00
68440;BMP180;55421;51.600;5.718;2023-12-22T07:43:37;163258.20;;;7.00
68440;BMP180;55421;51.600;5.718;2023-12-22T07:46:04;163259.80;;;7.00
68440;BMP180;55421;51.600;5.718;2023-12-22T07:48:31;163259.80;;;7.00
68440;BMP180;55421;51.600;5.718;2023-12-22T07:50:57;163268.20;;;7.00
68440;BMP180;55421;51.600;5.718;2023-12-22T07:53:23;163290.00;;;7.10
68440;BMP180;55421;51.600;5.718;2023-12-22T07:55:51;163302.80;;;7.10
68440;BMP180;55421;51.600;5.718;2023-12-22T07:58:17;163311.59;;;7.10
68440;BMP180;55421;51.600;5.718;2023-12-22T08:00:44;163310.80;;;7.10
68440;BMP180;55421;51.600;5.718;2023-12-22T08:03:12;163317.59;;;7.14
68440;BMP180;55421;51.600;5.718;2023-12-22T08:05:39;163340.41;;;7.20
68440;BMP180;55421;51.600;5.718;2023-12-22T08:08:05;163355.20;;;7.20
68440;BMP180;55421;51.600;5.718;2023-12-22T08:10:32;163375.59;;;7.30
68440;BMP180;55421;51.600;5.718;2023-12-22T08:12:58;163383.20;;;7.30
68440;BMP180;55421;51.600;5.718;2023-12-22T08:15:25;163393.00;;;7.30
68440;BMP180;55421;51.600;5.718;2023-12-22T08:17:51;163396.59;;;7.30
68440;BMP180;55421;51.600;5.718;2023-12-22T08:20:20;163397.80;;;7.30
68440;BMP180;55421;51.600;5.718;2023-12-22T08:22:48;163400.59;;;7.32
68440;BMP180;55421;51.600;5.718;2023-12-22T08:25:16;163404.59;;;7.36
68440;BMP180;55421;51.600;5.718;2023-12-22T08:27:43;163426.59;;;7.40
68440;BMP180;55421;51.600;5.718;2023-12-22T08:30:10;163438.59;;;7.40
68440;BMP180;55421;51.600;5.718;2023-12-22T08:32:38;163448.20;;;7.44
68440;BMP180;55421;51.600;5.718;2023-12-22T08:35:06;163457.80;;;7.50
68440;BMP180;55421;51.600;5.718;2023-12-22T08:37:33;163465.41;;;7.50
68440;BMP180;55421;51.600;5.718;2023-12-22T08:39:59;163471.41;;;7.50
68440;BMP180;55421;51.600;5.718;2023-12-22T08:42:28;163492.59;;;7.52
68440;BMP180;55421;51.600;5.718;2023-12-22T08:44:55;163502.20;;;7.60
68440;BMP180;55421;51.600;5.718;2023-12-22T08:47:22;163507.80;;;7.60
68440;BMP180;55421;51.600;5.718;2023-12-22T08:49:49;163510.20;;;7.60
68440;BMP180;55421;51.600;5.718;2023-12-22T08:52:16;163510.20;;;7.60
68440;BMP180;55421;51.600;5.718;2023-12-22T08:54:45;163519.00;;;7.60
68440;BMP180;55421;51.600;5.718;2023-12-22T08:57:13;163519.41;;;7.60
68440;BMP180;55421;51.600;5.718;2023-12-22T08:59:40;163542.41;;;7.70
68440;BMP180;55421;51.600;5.718;2023-12-22T09:02:07;163554.80;;;7.70
68440;BMP180;55421;51.600;5.718;2023-12-22T09:04:33;163561.59;;;7.70
68440;BMP180;55421;51.600;5.718;2023-12-22T09:07:00;163581.59;;;7.80
68440;BMP180;55421;51.600;5.718;2023-12-22T09:09:26;163591.59;;;7.80
68440;BMP180;55421;51.600;5.718;2023-12-22T09:11:54;163609.20;;;7.80
68440;BMP180;55421;51.600;5.718;2023-12-22T09:14:24;163626.41;;;7.88
68440;BMP180;55421;51.600;5.718;2023-12-22T09:16:52;163646.20;;;7.90
68440;BMP180;55421;51.600;5.718;2023-12-22T09:19:22;163652.20;;;7.90
68440;BMP180;55421;51.600;5.718;2023-12-22T09:21:48;163669.41;;;7.92
68440;BMP180;55421;51.600;5.718;2023-12-22T09:24:16;163672.59;;;8.00
68440;BMP180;55421;51.600;5.718;2023-12-22T09:26:43;163685.00;;;8.00
68440;BMP180;55421;51.600;5.718;2023-12-22T09:29:10;163697.00;;;8.00
68440;BMP180;55421;51.600;5.718;2023-12-22T09:31:39;163704.20;;;8.04
68440;BMP180;55421;51.600;5.718;2023-12-22T09:34:06;163708.59;;;8.08
68440;BMP180;55421;51.600;5.718;2023-12-22T09:36:34;163715.41;;;8.10
68440;BMP180;55421;51.600;5.718;2023-12-22T09:39:01;163716.59;;;8.10
68440;BMP180;55421;51.600;5.718;2023-12-22T09:41:27;163721.41;;;8.10
68440;BMP180;55421;51.600;5.718;2023-12-22T09:43:56;163713.00;;;8.10
68440;BMP180;55421;51.600;5.718;2023-12-22T09:46:25;163703.80;;;8.02
68440;BMP180;55421;51.600;5.718;2023-12-22T09:48:53;163693.41;;;8.00
68440;BMP180;55421;51.600;5.718;2023-12-22T09:51:20;163692.20;;;8.00
68440;BMP180;55421;51.600;5.718;2023-12-22T09:53:48;163689.80;;;8.00
68440;BMP180;55421;51.600;5.718;2023-12-22T09:56:18;163699.80;;;8.00
68440;BMP180;55421;51.600;5.718;2023-12-22T09:58:46;163706.59;;;8.00
68440;BMP180;55421;51.600;5.718;2023-12-22T10:01:13;163723.80;;;8.10
68440;BMP180;55421;51.600;5.718;2023-12-22T10:03:41;163734.59;;;8.10
68440;BMP180;55421;51.600;5.718;2023-12-22T10:06:09;163739.80;;;8.10
68440;BMP180;55421;51.600;5.718;2023-12-22T10:08:37;163759.00;;;8.20
68440;BMP180;55421;51.600;5.718;2023-12-22T10:11:04;163776.20;;;8.20
68440;BMP180;55421;51.600;5.718;2023-12-22T10:13:36;163792.00;;;8.22
68440;BMP180;55421;51.600;5.718;2023-12-22T10:16:04;163808.00;;;8.30
68440;BMP180;55421;51.600;5.718;2023-12-22T10:18:33;163824.00;;;8.30
68440;BMP180;55421;51.600;5.718;2023-12-22T10:20:59;163833.59;;;8.34
68440;BMP180;55421;51.600;5.718;2023-12-22T10:23:27;163852.00;;;8.40
68440;BMP180;55421;51.600;5.718;2023-12-22T10:25:53;163870.00;;;8.40
68440;BMP180;55421;51.600;5.718;2023-12-22T10:28:22;163883.20;;;8.46
68440;BMP180;55421;51.600;5.718;2023-12-22T10:30:52;163904.59;;;8.50
68440;BMP180;55421;51.600;5.718;2023-12-22T10:33:19;163930.59;;;8.58
68440;BMP180;55421;51.600;5.718;2023-12-22T10:35:46;163958.20;;;8.60
68440;BMP180;55421;51.600;5.718;2023-12-22T10:38:19;163979.41;;;8.70
68440;BMP180;55421;51.600;5.718;2023-12-22T10:40:49;163999.00;;;8.70
68440;BMP180;55421;51.600;5.718;2023-12-22T10:43:16;164023.00;;;8.80
68440;BMP180;55421;51.600;5.718;2023-12-22T10:45:43;164034.80;;;8.80
68440;BMP180;55421;51.600;5.718;2023-12-22T10:48:12;164052.80;;;8.90
68440;BMP180;55421;51.600;5.718;2023-12-22T10:50:40;164061.59;;;8.90
68440;BMP180;55421;51.600;5.718;2023-12-22T10:53:11;164061.59;;;8.90
68440;BMP180;55421;51.600;5.718;2023-12-22T10:55:37;164074.41;;;8.90
68440;BMP180;55421;51.600;5.718;2023-12-22T10:58:05;164087.20;;;8.90
68440;BMP180;55421;51.600;5.718;2023-12-22T11:00:34;164094.41;;;8.92
68440;BMP180;55421;51.600;5.718;2023-12-22T11:03:10;164098.80;;;8.94
68440;BMP180;55421;51.600;5.718;2023-12-22T11:05:45;164094.41;;;8.92
68440;BMP180;55421;51.600;5.718;2023-12-22T11:08:14;164088.41;;;8.90
68440;BMP180;55421;51.600;5.718;2023-12-22T11:10:44;164090.80;;;8.92
68440;BMP180;55421;51.600;5.718;2023-12-22T11:13:12;164104.80;;;9.00
68440;BMP180;55421;51.600;5.718;2023-12-22T11:15:40;164112.41;;;9.00
68440;BMP180;55421;51.600;5.718;2023-12-22T11:18:09;164124.80;;;9.00
68440;BMP180;55421;51.600;5.718;2023-12-22T11:20:38;164135.80;;;9.04
68440;BMP180;55421;51.600;5.718;2023-12-22T11:23:08;164148.20;;;9.10
68440;BMP180;55421;51.600;5.718;2023-12-22T11:25:36;164154.20;;;9.10
68440;BMP180;55421;51.600;5.718;2023-12-22T11:28:06;164164.59;;;9.10
68440;BMP180;55421;51.600;5.718;2023-12-22T11:30:36;164166.59;;;9.10
68440;BMP180;55421;51.600;5.718;2023-12-22T11:33:04;164169.41;;;9.10
68440;BMP180;55421;51.600;5.718;2023-12-22T11:35:33;164179.80;;;9.12
68440;BMP180;55421;51.600;5.718;2023-12-22T11:38:03;164184.59;;;9.20
68440;BMP180;55421;51.600;5.718;2023-12-22T11:40:30;164199.00;;;9.20
68440;BMP180;55421;51.600;5.718;2023-12-22T11:42:58;164209.00;;;9.20
68440;BMP180;55421;51.600;5.718;2023-12-22T11:45:30;164223.80;;;9.22
68440;BMP180;55421;51.600;5.718;2023-12-22T11:48:07;164224.20;;;9.20
68440;BMP180;55421;51.600;5.718;2023-12-22T11:50:35;164215.00;;;9.20
68440;BMP180;55421;51.600;5.718;2023-12-22T11:53:22;164203.41;;;9.20
68440;BMP180;55421;51.600;5.718;2023-12-22T11:56:04;164199.00;;;9.20
68440;BMP180;55421;51.600;5.718;2023-12-22T11:58:47;164215.00;;;9.20
68440;BMP180;55421;51.600;5.718;2023-12-22T12:01:25;164212.59;;;9.20
68440;BMP180;55421;51.600;5.718;2023-12-22T12:04:00;164212.59;;;9.20
68440;BMP180;55421;51.600;5.718;2023-12-22T12:09:07;164220.59;;;9.20
68440;BMP180;55421;51.600;5.718;2023-12-22T12:14:33;164191.41;;;9.20
68440;BMP180;55421;51.600;5.718;2023-12-22T12:17:06;164170.59;;;9.10
68440;BMP180;55421;51.600;5.718;2023-12-22T12:19:38;164164.59;;;9.10
68440;BMP180;55421;51.600;5.718;2023-12-22T12:22:05;164169.41;;;9.10
68440;BMP180;55421;51.600;5.718;2023-12-22T12:24:32;164182.20;;;9.20
68440;BMP180;55421;51.600;5.718;2023-12-22T12:26:59;164205.41;;;9.20
68440;BMP180;55421;51.600;5.718;2023-12-22T12:29:26;164219.41;;;9.20
68440;BMP180;55421;51.600;5.718;2023-12-22T12:31:53;164235.80;;;9.30
68440;BMP180;55421;51.600;5.718;2023-12-22T12:34:22;164255.00;;;9.30
68440;BMP180;55421;51.600;5.718;2023-12-22T12:36:52;164269.20;;;9.32
68440;BMP180;55421;51.600;5.718;2023-12-22T12:39:22;164271.20;;;9.40
68440;BMP180;55421;51.600;5.718;2023-12-22T12:41:54;164257.00;;;9.30
68440;BMP180;55421;51.600;5.718;2023-12-22T12:44:23;164224.59;;;9.20
68440;BMP180;55421;51.600;5.718;2023-12-22T12:46:51;164205.41;;;9.20
68440;BMP180;55421;51.600;5.718;2023-12-22T12:49:18;164197.00;;;9.20
68440;BMP180;55421;51.600;5.718;2023-12-22T12:51:49;164201.00;;;9.20
68440;BMP180;55421;51.600;5.718;2023-12-22T12:54:15;164213.80;;;9.20
68440;BMP180;55421;51.600;5.718;2023-12-22T12:56:44;164216.20;;;9.20
68440;BMP180;55421;51.600;5.718;2023-12-22T12:59:16;164237.00;;;9.30
68440;BMP180;55421;51.600;5.718;2023-12-22T13:01:47;164247.80;;;9.30
68440;BMP180;55421;51.600;5.718;2023-12-22T13:04:14;164261.00;;;9.30
68440;BMP180;55421;51.600;5.718;2023-12-22T13:06:51;164267.20;;;9.30
68440;BMP180;55421;51.600;5.718;2023-12-22T13:09:19;164257.00;;;9.30
68440;BMP180;55421;51.600;5.718;2023-12-22T13:11:46;164266.00;;;9.30
68440;BMP180;55421;51.600;5.718;2023-12-22T13:14:23;164266.00;;;9.30
68440;BMP180;55421;51.600;5.718;2023-12-22T13:16:55;164266.00;;;9.30
68440;BMP180;55421;51.600;5.718;2023-12-22T13:19:23;164273.20;;;9.40
68440;BMP180;55421;51.600;5.718;2023-12-22T13:21:54;164275.59;;;9.40
68440;BMP180;55421;51.600;5.718;2023-12-22T13:24:20;164272.41;;;9.34
68440;BMP180;55421;51.600;5.718;2023-12-22T13:27:00;164273.20;;;9.38
68440;BMP180;55421;51.600;5.718;2023-12-22T13:29:41;164272.41;;;9.38
68440;BMP180;55421;51.600;5.718;2023-12-22T13:32:08;164268.00;;;9.30
68440;BMP180;55421;51.600;5.718;2023-12-22T13:34:34;164253.80;;;9.30
68440;BMP180;55421;51.600;5.718;2023-12-22T13:37:03;164240.59;;;9.30
68440;BMP180;55421;51.600;5.718;2023-12-22T13:39:30;164230.59;;;9.24
68440;BMP180;55421;51.600;5.718;2023-12-22T13:41:57;164229.00;;;9.28
68440;BMP180;55421;51.600;5.718;2023-12-22T13:44:24;164224.20;;;9.20
68440;BMP180;55421;51.600;5.718;2023-12-22T13:46:51;164217.00;;;9.20
68440;BMP180;55421;51.600;5.718;2023-12-22T13:49:18;164199.41;;;9.20
68440;BMP180;55421;51.600;5.718;2023-12-22T13:51:45;164185.80;;;9.20
68440;BMP180;55421;51.600;5.718;2023-12-22T13:54:14;164191.80;;;9.20
68440;BMP180;55421;51.600;5.718;2023-12-22T13:56:43;164191.80;;;9.20
68440;BMP180;55421;51.600;5.718;2023-12-22T13:59:12;164191.80;;;9.20
68440;BMP180;55421;51.600;5.718;2023-12-22T14:01:39;164192.59;;;9.20
68440;BMP180;55421;51.600;5.718;2023-12-22T14:04:06;164192.59;;;9.20
68440;BMP180;55421;51.600;5.718;2023-12-22T14:06:37;164185.80;;;9.18
68440;BMP180;55421;51.600;5.718;2023-12-22T14:09:04;164181.00;;;9.12
68440;BMP180;55421;51.600;5.718;2023-12-22T14:11:30;164177.41;;;9.16
68440;BMP180;55421;51.600;5.718;2023-12-22T14:13:57;164175.00;;;9.10
68440;BMP180;55421;51.600;5.718;2023-12-22T14:16:23;164171.41;;;9.10
68440;BMP180;55421;51.600;5.718;2023-12-22T14:18:50;164177.41;;;9.10
68440;BMP180;55421;51.600;5.718;2023-12-22T14:21:17;164175.00;;;9.12